Flight Track Log - Related Links

Times and Time Zones

All times are in EDT time to prevent confusion due to time zone crossing. See the SWA3313 flight status page for this flight to view local times or setup timezone preferences in your user account.

Time Position Orientation Groundspeed Altitude Reporting Facility
EDT Latitude Longitude Course Direction KTS MPH feet Rate Location/Type
Wed 09:14:00 PM 38.0037 -78.0000 222° Southwest  Level Estimated
Wed 09:15:00 PM 37.9291 -78.0827 221° Southwest  Level Estimated
Wed 09:16:00 PM 37.8545 -78.1653 221° Southwest  Level Estimated
Wed 09:17:00 PM 37.7815 -78.2458 228° Southwest  Level Estimated
Wed 09:18:00 PM 37.7272 -78.3481 236° Southwest  Level FlightAware Approximate
Wed 09:19:00 PM 37.6729 -78.4501 236° Southwest  Level FlightAware Approximate
Wed 09:19:32 PM 37.9025 -78.3183 236° Southwest 381 438 36,000  Level Washington Center
Wed 09:20:00 PM 37.6184 -78.5520 236° Southwest  Level FlightAware Approximate
Wed 09:20:32 PM 37.8356 -78.4183 230° Southwest 381 438 36,000  Level Washington Center
Wed 09:21:00 PM 37.5638 -78.6538 236° Southwest  Level FlightAware Approximate
Wed 09:21:32 PM 37.7664 -78.5131 227° Southwest 375 432 36,000  Level Washington Center
Wed 09:22:00 PM 37.5089 -78.7559 236° Southwest  Level FlightAware Approximate
Wed 09:22:32 PM 37.6928 -78.6231 230° Southwest 375 432 36,000  Level Washington Center
Wed 09:23:00 PM 37.4533 -78.8590 236° Southwest  Level FlightAware Approximate
Wed 09:23:32 PM 37.6217 -78.7172 226° Southwest 375 432 36,000  Level Washington Center
Wed 09:24:00 PM 37.3976 -78.9620 236° Southwest  Level FlightAware Approximate
Wed 09:24:32 PM 37.5542 -78.8167 229° Southwest 375 432 36,000  Level Washington Center
Wed 09:25:32 PM 37.4828 -78.9156 228° Southwest 375 432 36,000  Level Washington Center
Wed 09:26:32 PM 37.4197 -79.0044 228° Southwest 375 432 36,000  Level Washington Center
Wed 09:27:32 PM 37.3500 -79.1033 228° Southwest 375 432 36,000  Level Washington Center
Wed 09:29:32 PM 37.1944 -79.2864 223° Southwest 381 438 36,000  Level Washington Center
Wed 09:30:32 PM 37.1044 -79.3575 212° Southwest 386 444 36,000  Level Washington Center
Wed 09:31:32 PM 37.0058 -79.4411 214° Southwest 391 450 36,000  Level Washington Center
Wed 09:32:32 PM 36.9158 -79.5147 213° Southwest 391 450 36,000  Level Washington Center
Wed 09:33:32 PM 36.8281 -79.5881 214° Southwest 391 450 36,000 -950 Level Washington Center
Wed 09:34:32 PM 36.7400 -79.6614 214° Southwest 391 450 34,100 -1,850 Descending Washington Center
Wed 09:35:32 PM 36.6583 -79.7269 213° Southwest 391 450 32,300 -2,450 Descending Washington Center
Wed 09:36:32 PM 36.5703 -79.7997 214° Southwest 391 450 29,200 -2,900 Descending Washington Center
Wed 09:37:32 PM 36.4822 -79.8725 214° Southwest 391 450 26,500 -2,698 Descending Washington Center
Wed 09:38:41 PM 36.3781 -79.9489 211° Southwest 369 425 23,400 -2,093 Descending Atlanta Center
Wed 09:39:41 PM 36.2928 -80.0228 215° Southwest 369 425 22,000 -850 Descending Atlanta Center
Wed 09:40:41 PM 36.2158 -80.0858 213° Southwest 356 410 21,700 -700 Descending Atlanta Center
Wed 09:41:41 PM 36.1347 -80.1592 216° Southwest 341 392 20,600 -1,400 Descending Atlanta Center
Wed 09:42:41 PM 36.0594 -80.2219 214° Southwest 336 387 18,900 -1,650 Descending Atlanta Center
Wed 09:43:41 PM 35.9883 -80.2842 215° Southwest 326 375 17,300 -1,807 Descending Atlanta Center
Wed 09:44:04 PM 35.9600 -80.3114 218° Southwest 307 353 16,400 -1,932 Descending Atlanta Center
Wed 09:44:40 PM 35.9233 -80.3436 215° Southwest 304 350 15,400 -1,794 Descending Atlanta Center
Wed 09:45:41 PM 35.8500 -80.4033 213° Southwest 296 341 13,500 -1,587 Descending Atlanta Center
Wed 09:46:41 PM 35.7931 -80.4494 213° Southwest 298 343 12,200 -1,250 Descending Atlanta Center
Wed 09:47:41 PM 35.7239 -80.5089 215° Southwest 288 331 11,000 -1,450 Descending Atlanta Center
Wed 09:48:41 PM 35.6603 -80.5525 209° Southwest 269 310 9,300 -1,650 Descending Atlanta Center
Wed 09:49:41 PM 35.5969 -80.5958 209° Southwest 269 310 7,700 -1,600 Descending Atlanta Center
Wed 09:49:56 PM 35.5806 -80.6094 214° Southwest 265 305 7,300 -1,400 Descending Atlanta Center
Wed 09:50:41 PM 35.5336 -80.6419 209° Southwest 264 304 6,300 -1,300 Descending Atlanta Center
Wed 09:50:56 PM 35.5192 -80.6528 211° Southwest 255 293 6,000 -300 Descending Atlanta Center
Wed 09:51:41 PM 35.4722 -80.6853 209° Southwest 256 295 6,000  Level Atlanta Center
Wed 09:51:57 PM 35.4600 -80.6936 209° Southwest 247 284 6,000 -1,200 Level Atlanta Center
Wed 09:52:41 PM 35.4147 -80.7258 210° Southwest 256 295 4,800 -1,500 Descending Atlanta Center
Wed 09:52:57 PM 35.3983 -80.7342 203° Southwest 248 285 4,500 -800 Descending Atlanta Center
Wed 09:53:41 PM 35.3556 -80.7664 212° Southwest 256 295 4,000 -448 Descending Atlanta Center
Wed 09:54:04 PM 35.3389 -80.7775 209° Southwest 231 266 4,000 -714 Level Atlanta Center
Wed 09:55:05 PM 35.3008 -80.8297 228° Southwest 165 190 3,000 -893 Descending Atlanta Center
Wed 09:56:05 PM 35.2744 -80.8614 224° Southwest 123 142 2,200 -645 Descending Atlanta Center
Wed 09:57:06 PM 35.2542 -80.8875 226° Southwest 101 116 1,700 -541 Descending Atlanta Center
Wed 09:58:07 PM 35.2342 -80.9189 232° Southwest 114 131 1,100 -590 Descending Atlanta Center
Wed 10:00:00 PM 35.2137 -80.9491 176° South  Level Estimated

Login

Don't have an account? Register now (free) for customized features, flight alerts, and more!